createdAt,value
2023-01-22T00:02:18.716Z,102371.38
2023-01-22T00:04:54.184Z,102375.81
2023-01-22T00:07:24.790Z,102374.41
2023-01-22T00:09:56.144Z,102369.91
2023-01-22T00:12:26.176Z,102374.94
2023-01-22T00:14:56.829Z,102371.50
2023-01-22T00:17:26.727Z,102358.88
2023-01-22T00:19:55.127Z,102365.84
2023-01-22T00:22:24.792Z,102365.03
2023-01-22T00:24:53.450Z,102365.75
2023-01-22T00:27:25.792Z,102365.69
2023-01-22T00:29:56.104Z,102357.59
2023-01-22T00:32:25.733Z,102347.13
2023-01-22T00:34:55.505Z,102340.91
2023-01-22T00:37:24.127Z,102346.66
2023-01-22T00:39:52.833Z,102343.56
2023-01-22T00:42:21.902Z,102352.41
2023-01-22T00:44:52.005Z,102351.47
2023-01-22T00:47:27.134Z,102339.78
2023-01-22T00:49:56.756Z,102335.16
2023-01-22T00:52:27.692Z,102333.50
2023-01-22T00:54:58.390Z,102322.28
2023-01-22T00:57:28.956Z,102342.91
2023-01-22T00:59:59.005Z,102339.69
2023-01-22T01:02:28.862Z,102345.19
2023-01-22T01:04:58.698Z,102338.25
2023-01-22T01:07:27.399Z,102325.00
2023-01-22T01:09:56.036Z,102341.28
2023-01-22T01:12:24.581Z,102351.75
2023-01-22T01:14:56.957Z,102345.16
2023-01-22T01:17:27.079Z,102329.78
2023-01-22T01:19:55.654Z,102339.91
2023-01-22T01:22:24.337Z,102332.84
2023-01-22T01:24:53.869Z,102314.38
2023-01-22T01:27:23.035Z,102310.38
2023-01-22T01:29:53.332Z,102300.84
2023-01-22T01:32:21.839Z,102307.63
2023-01-22T01:34:53.743Z,102308.44
2023-01-22T01:37:22.418Z,102311.38
2023-01-22T01:39:52.803Z,102312.50
2023-01-22T01:42:29.432Z,102298.38
2023-01-22T01:45:29.486Z,102292.38
2023-01-22T01:48:07.742Z,102297.91
2023-01-22T01:50:39.510Z,102298.03
2023-01-22T01:53:15.421Z,102301.78
2023-01-22T01:55:46.096Z,102300.59
2023-01-22T01:58:23.104Z,102287.88
2023-01-22T02:01:03.646Z,102280.94
2023-01-22T02:03:32.654Z,102279.44
2023-01-22T02:06:05.172Z,102284.50
2023-01-22T02:08:34.334Z,102281.75
2023-01-22T02:11:03.100Z,102294.97
2023-01-22T02:13:36.542Z,102296.44
2023-01-22T02:16:08.102Z,102297.41
2023-01-22T02:18:43.129Z,102287.03
2023-01-22T02:21:44.099Z,102282.81
2023-01-22T02:24:14.748Z,102262.41
2023-01-22T02:26:45.802Z,102280.91
2023-01-22T02:29:18.067Z,102279.88
2023-01-22T02:31:52.892Z,102274.31
2023-01-22T02:34:25.231Z,102280.84
2023-01-22T02:36:57.677Z,102288.06
2023-01-22T02:39:27.217Z,102284.19
2023-01-22T02:41:55.694Z,102299.47
2023-01-22T02:44:26.174Z,102297.50
2023-01-22T02:46:54.929Z,102280.75
2023-01-22T02:49:26.998Z,102286.28
2023-01-22T02:52:06.013Z,102281.75
2023-01-22T02:54:36.742Z,102275.56
2023-01-22T02:57:07.567Z,102261.44
2023-01-22T02:59:36.647Z,102259.56
2023-01-22T03:02:07.352Z,102255.22
2023-01-22T03:04:36.054Z,102272.53
2023-01-22T03:07:07.142Z,102253.44
2023-01-22T03:09:39.630Z,102250.22
2023-01-22T03:12:09.343Z,102241.44
2023-01-22T03:14:57.533Z,102244.25
2023-01-22T03:17:43.702Z,102238.16
2023-01-22T03:20:30.972Z,102239.88
2023-01-22T03:23:00.804Z,102239.63
2023-01-22T03:25:29.207Z,102236.78
2023-01-22T03:28:11.658Z,102236.16
2023-01-22T03:30:42.381Z,102243.03
2023-01-22T03:33:11.307Z,102232.09
2023-01-22T03:35:42.800Z,102251.34
2023-01-22T03:38:13.365Z,102244.34
2023-01-22T03:40:46.029Z,102243.25
2023-01-22T03:43:14.671Z,102251.94
2023-01-22T03:45:43.504Z,102256.88
2023-01-22T03:48:15.011Z,102247.97
2023-01-22T03:50:43.575Z,102244.03
2023-01-22T03:53:13.684Z,102265.75
2023-01-22T03:55:43.342Z,102265.81
2023-01-22T03:58:13.986Z,102286.16
2023-01-22T04:00:42.681Z,102293.09
2023-01-22T04:03:12.551Z,102299.88
2023-01-22T04:05:41.043Z,102293.94
2023-01-22T04:08:09.348Z,102281.09
2023-01-22T04:10:41.362Z,102275.44
2023-01-22T04:13:10.034Z,102298.22
2023-01-22T04:15:47.278Z,102263.06
2023-01-22T04:18:16.109Z,102279.00
2023-01-22T04:20:44.489Z,102268.66
2023-01-22T04:23:13.066Z,102283.72
2023-01-22T04:25:43.096Z,102260.63
2023-01-22T04:28:14.929Z,102252.84
2023-01-22T04:30:49.311Z,102244.09
2023-01-22T04:33:19.212Z,102227.50
2023-01-22T04:35:52.778Z,102244.34
2023-01-22T04:38:27.499Z,102234.81
2023-01-22T04:40:57.623Z,102231.25
2023-01-22T04:43:27.420Z,102243.28
2023-01-22T04:46:02.279Z,102234.50
2023-01-22T04:48:32.947Z,102228.53
2023-01-22T04:51:08.587Z,102236.31
2023-01-22T04:53:38.499Z,102247.72
2023-01-22T04:56:09.011Z,102264.13
2023-01-22T04:58:37.706Z,102270.44
2023-01-22T05:01:06.288Z,102266.94
2023-01-22T05:03:35.134Z,102261.69
2023-01-22T05:06:05.272Z,102260.75
2023-01-22T05:08:34.262Z,102271.41
2023-01-22T05:11:10.530Z,102273.94
2023-01-22T05:13:44.893Z,102285.13
2023-01-22T05:16:15.772Z,102285.50
2023-01-22T05:18:44.386Z,102272.69
2023-01-22T05:21:15.050Z,102279.56
2023-01-22T05:23:46.954Z,102271.53
2023-01-22T05:26:20.128Z,102278.00
2023-01-22T05:28:48.804Z,102283.34
2023-01-22T05:31:17.445Z,102286.16
2023-01-22T05:33:46.041Z,102269.31
2023-01-22T05:36:14.656Z,102274.69
2023-01-22T05:38:46.972Z,102288.81
2023-01-22T05:41:16.268Z,102284.19
2023-01-22T05:43:46.398Z,102288.06
2023-01-22T05:46:15.405Z,102304.06
2023-01-22T05:48:43.962Z,102294.47
2023-01-22T05:51:15.791Z,102291.19
2023-01-22T05:53:47.565Z,102300.78
2023-01-22T05:56:16.374Z,102290.41
2023-01-22T05:58:52.603Z,102295.47
2023-01-22T06:01:21.373Z,102295.19
2023-01-22T06:03:50.053Z,102297.09
2023-01-22T06:06:19.851Z,102292.88
2023-01-22T06:08:51.623Z,102290.41
2023-01-22T06:11:21.459Z,102292.88
2023-01-22T06:13:51.669Z,102305.38
2023-01-22T06:16:25.213Z,102298.22
2023-01-22T06:18:54.800Z,102293.69
2023-01-22T06:21:23.451Z,102292.88
2023-01-22T06:23:51.932Z,102302.63
2023-01-22T06:26:20.972Z,102306.91
2023-01-22T06:28:55.370Z,102308.03
2023-01-22T06:31:24.129Z,102302.69
2023-01-22T06:33:54.704Z,102306.19
2023-01-22T06:36:23.344Z,102308.94
2023-01-22T06:38:51.894Z,102300.13
2023-01-22T06:41:26.542Z,102297.50
2023-01-22T06:43:57.034Z,102298.41
2023-01-22T06:46:26.856Z,102299.06
2023-01-22T06:48:56.725Z,102293.69
2023-01-22T06:51:32.034Z,102294.47
2023-01-22T06:54:01.524Z,102276.16
2023-01-22T06:56:32.498Z,102290.91
2023-01-22T06:59:04.935Z,102282.97
2023-01-22T07:01:34.826Z,102275.19
2023-01-22T07:04:12.470Z,102277.88
2023-01-22T07:06:42.103Z,102274.25
2023-01-22T07:09:10.703Z,102275.38
2023-01-22T07:11:39.252Z,102285.78
2023-01-22T07:14:10.324Z,102283.19
2023-01-22T07:16:38.939Z,102285.63
2023-01-22T07:19:07.904Z,102298.88
2023-01-22T07:21:37.646Z,102300.47
2023-01-22T07:24:07.055Z,102317.03
2023-01-22T07:26:39.183Z,102317.84
2023-01-22T07:29:10.134Z,102322.94
2023-01-22T07:31:38.778Z,102325.69
2023-01-22T07:34:18.102Z,102329.25
2023-01-22T07:36:48.670Z,102329.44
2023-01-22T07:39:23.590Z,102344.50
2023-01-22T07:41:52.202Z,102330.69
2023-01-22T07:44:23.242Z,102324.63
2023-01-22T07:46:53.063Z,102331.78
2023-01-22T07:49:21.733Z,102346.56
2023-01-22T07:51:50.350Z,102331.59
2023-01-22T07:54:20.401Z,102339.13
2023-01-22T07:56:56.783Z,102322.31
2023-01-22T07:59:32.112Z,102329.97
2023-01-22T08:02:03.699Z,102329.69
2023-01-22T08:04:32.722Z,102331.38
2023-01-22T08:07:13.744Z,102336.63
2023-01-22T08:09:46.289Z,102347.09
2023-01-22T08:12:17.288Z,102343.63
2023-01-22T08:14:47.276Z,102356.91
2023-01-22T08:17:15.845Z,102364.63
2023-01-22T08:19:50.063Z,102374.03
2023-01-22T08:22:25.967Z,102366.00
2023-01-22T08:25:01.398Z,102357.44
2023-01-22T08:27:35.421Z,102354.81
2023-01-22T08:30:08.022Z,102349.63
2023-01-22T08:32:47.139Z,102353.81
2023-01-22T08:35:16.015Z,102356.50
2023-01-22T08:37:45.656Z,102359.03
2023-01-22T08:40:15.445Z,102356.00
2023-01-22T08:42:44.111Z,102357.50
2023-01-22T08:45:15.992Z,102343.41
2023-01-22T08:47:44.782Z,102349.78
2023-01-22T08:50:13.393Z,102349.47
2023-01-22T08:52:43.114Z,102341.56
2023-01-22T08:55:13.913Z,102350.97
2023-01-22T08:57:42.769Z,102358.06
2023-01-22T09:00:16.964Z,102349.63
2023-01-22T09:02:46.798Z,102351.44
2023-01-22T09:05:15.573Z,102364.69
2023-01-22T09:07:45.426Z,102352.28
2023-01-22T09:10:14.351Z,102352.41
2023-01-22T09:12:43.092Z,102349.72
2023-01-22T09:15:15.461Z,102353.09
2023-01-22T09:17:46.166Z,102354.63
2023-01-22T09:20:14.841Z,102347.41
2023-01-22T09:22:46.536Z,102352.69
2023-01-22T09:25:15.175Z,102339.13
2023-01-22T09:27:50.543Z,102362.84
2023-01-22T09:30:21.092Z,102367.06
2023-01-22T09:32:57.107Z,102358.94
2023-01-22T09:35:28.865Z,102366.09
2023-01-22T09:37:57.683Z,102363.38
2023-01-22T09:40:30.199Z,102373.94
2023-01-22T09:43:06.630Z,102377.28
2023-01-22T09:45:40.804Z,102372.88
2023-01-22T09:48:17.046Z,102380.91
2023-01-22T09:50:46.868Z,102371.28
2023-01-22T09:53:22.657Z,102377.34
2023-01-22T09:55:57.882Z,102384.19
2023-01-22T09:58:27.923Z,102374.69
2023-01-22T10:01:08.743Z,102380.66
2023-01-22T10:03:40.856Z,102382.19
2023-01-22T10:06:13.899Z,102386.19
2023-01-22T10:08:54.266Z,102390.19
2023-01-22T10:11:22.906Z,102383.78
2023-01-22T10:13:57.713Z,102400.34
2023-01-22T10:16:30.427Z,102398.41
2023-01-22T10:19:04.438Z,102402.72
2023-01-22T10:21:41.036Z,102411.31
2023-01-22T10:24:12.600Z,102414.81
2023-01-22T10:26:44.667Z,102410.19
2023-01-22T10:29:22.444Z,102415.63
2023-01-22T10:31:56.353Z,102419.09
2023-01-22T10:34:31.182Z,102427.78
2023-01-22T10:37:03.842Z,102418.03
2023-01-22T10:39:41.887Z,102420.59
2023-01-22T10:42:18.826Z,102423.19
2023-01-22T10:44:48.434Z,102423.19
2023-01-22T10:47:22.894Z,102418.53
2023-01-22T10:50:04.824Z,102424.69
2023-01-22T10:52:38.262Z,102430.00
2023-01-22T10:55:08.849Z,102419.44
2023-01-22T10:57:40.455Z,102427.22
2023-01-22T11:00:24.575Z,102424.59
2023-01-22T11:02:56.919Z,102418.25
2023-01-22T11:05:27.585Z,102424.59
2023-01-22T11:08:00.269Z,102428.03
2023-01-22T11:10:41.043Z,102436.09
2023-01-22T11:13:14.932Z,102434.16
2023-01-22T11:15:49.941Z,102429.75
2023-01-22T11:18:32.883Z,102435.97
2023-01-22T11:21:12.186Z,102435.06
2023-01-22T11:23:49.035Z,102433.31
2023-01-22T11:26:28.943Z,102434.16
2023-01-22T11:29:09.033Z,102433.16
2023-01-22T11:31:53.389Z,102430.47
2023-01-22T11:34:41.221Z,102435.44
2023-01-22T11:37:15.388Z,102437.19
2023-01-22T11:40:13.664Z,102431.69
2023-01-22T11:42:59.049Z,102428.94
2023-01-22T11:45:41.493Z,102428.94
2023-01-22T11:48:24.874Z,102420.03
2023-01-22T11:51:05.448Z,102421.75
2023-01-22T11:53:49.974Z,102415.47
2023-01-22T11:56:41.680Z,102424.16
2023-01-22T11:59:15.765Z,102422.31
2023-01-22T12:02:20.064Z,102416.72
2023-01-22T12:05:09.200Z,102413.09
2023-01-22T12:08:13.451Z,102404.22
2023-01-22T12:11:08.485Z,102415.44
2023-01-22T12:13:55.290Z,102401.28
2023-01-22T12:16:33.677Z,102403.91
2023-01-22T12:19:37.803Z,102402.22
2023-01-22T12:22:13.143Z,102393.59
2023-01-22T12:24:48.747Z,102402.31
2023-01-22T12:27:24.249Z,102401.69
2023-01-22T12:29:56.955Z,102393.44
2023-01-22T12:32:30.556Z,102401.44
2023-01-22T12:35:06.861Z,102401.38
2023-01-22T12:37:42.006Z,102389.84
2023-01-22T12:40:41.828Z,102387.06
2023-01-22T12:43:11.556Z,102393.22
2023-01-22T12:45:45.417Z,102379.84
2023-01-22T12:48:25.480Z,102379.16
2023-01-22T12:50:56.415Z,102374.72
2023-01-22T12:53:29.156Z,102374.47
2023-01-22T12:56:07.528Z,102366.56
2023-01-22T12:58:44.118Z,102371.75
2023-01-22T13:01:25.462Z,102360.09
2023-01-22T13:04:02.521Z,102359.00
2023-01-22T13:06:38.517Z,102361.44
2023-01-22T13:09:25.444Z,102348.91
2023-01-22T13:11:55.483Z,102352.31
2023-01-22T13:14:28.178Z,102348.72
2023-01-22T13:16:59.986Z,102355.75
2023-01-22T13:19:39.178Z,102344.63
2023-01-22T13:22:14.950Z,102344.09
2023-01-22T13:24:50.936Z,102343.53
2023-01-22T13:27:30.953Z,102352.16
2023-01-22T13:30:09.383Z,102350.19
2023-01-22T13:32:38.128Z,102361.72
2023-01-22T13:35:08.505Z,102365.19
2023-01-22T13:37:38.965Z,102369.25
2023-01-22T13:40:16.178Z,102365.94
2023-01-22T13:42:48.097Z,102363.53
2023-01-22T13:45:20.474Z,102369.50
2023-01-22T13:47:49.204Z,102364.91
2023-01-22T13:50:23.415Z,102362.13
2023-01-22T13:52:52.456Z,102369.28
2023-01-22T13:55:23.879Z,102363.97
2023-01-22T13:57:55.169Z,102365.94
2023-01-22T14:00:27.279Z,102370.34
2023-01-22T14:02:56.403Z,102362.50
2023-01-22T14:05:27.352Z,102364.31
2023-01-22T14:08:07.828Z,102354.91
2023-01-22T14:10:37.769Z,102359.97
2023-01-22T14:13:10.894Z,102345.31
2023-01-22T14:15:41.272Z,102349.69
2023-01-22T14:18:11.960Z,102345.56
2023-01-22T14:20:42.002Z,102350.69
2023-01-22T14:23:11.101Z,102356.06
2023-01-22T14:25:40.546Z,102352.31
2023-01-22T14:28:11.114Z,102348.19
2023-01-22T14:30:39.743Z,102357.06
2023-01-22T14:33:08.643Z,102351.88
2023-01-22T14:35:37.411Z,102356.44
2023-01-22T14:38:05.992Z,102360.03
2023-01-22T14:40:35.126Z,102360.03
2023-01-22T14:43:05.081Z,102359.22
2023-01-22T14:45:35.483Z,102360.16
2023-01-22T14:48:04.775Z,102364.59
2023-01-22T14:50:36.710Z,102375.78
2023-01-22T14:53:06.480Z,102377.34
2023-01-22T14:55:35.924Z,102378.44
2023-01-22T14:58:07.745Z,102378.59
2023-01-22T15:00:38.392Z,102383.94
2023-01-22T15:03:07.734Z,102391.97
2023-01-22T15:05:36.517Z,102388.53
2023-01-22T15:08:05.474Z,102395.38
2023-01-22T15:10:34.354Z,102395.28
2023-01-22T15:13:03.445Z,102396.16
2023-01-22T15:15:32.217Z,102393.44
2023-01-22T15:18:03.329Z,102386.44
2023-01-22T15:20:32.125Z,102385.81
2023-01-22T15:23:00.983Z,102381.44
2023-01-22T15:25:29.840Z,102385.13
2023-01-22T15:27:58.474Z,102380.69
2023-01-22T15:30:27.337Z,102376.47
2023-01-22T15:32:56.584Z,102379.03
2023-01-22T15:35:26.701Z,102373.59
2023-01-22T15:37:55.324Z,102372.84
2023-01-22T15:40:23.795Z,102376.09
2023-01-22T15:42:52.488Z,102377.91
2023-01-22T15:45:21.495Z,102382.63
2023-01-22T15:47:50.251Z,102396.53
2023-01-22T15:50:21.600Z,102401.69
2023-01-22T15:52:55.189Z,102407.88
2023-01-22T15:55:23.747Z,102418.38
2023-01-22T15:57:52.462Z,102413.94
2023-01-22T16:00:22.858Z,102417.44
2023-01-22T16:02:51.693Z,102419.28
2023-01-22T16:05:21.451Z,102418.59
2023-01-22T16:07:52.614Z,102430.16
2023-01-22T16:10:21.929Z,102435.44
2023-01-22T16:12:50.535Z,102430.16
2023-01-22T16:15:19.428Z,102428.47
2023-01-22T16:17:48.301Z,102445.03
2023-01-22T16:20:17.636Z,102445.06
2023-01-22T16:22:46.965Z,102444.16
2023-01-22T16:25:16.908Z,102447.81
2023-01-22T16:27:46.550Z,102443.50
2023-01-22T16:30:16.826Z,102451.75
2023-01-22T16:32:46.396Z,102459.97
2023-01-22T16:35:15.120Z,102465.38
2023-01-22T16:37:45.615Z,102468.13
2023-01-22T16:40:18.544Z,102474.41
2023-01-22T16:43:00.353Z,102474.47
2023-01-22T16:45:28.898Z,102480.69
2023-01-22T16:47:58.308Z,102486.81
2023-01-22T16:50:26.874Z,102489.25
2023-01-22T16:52:55.470Z,102499.13
2023-01-22T16:55:25.777Z,102485.69
2023-01-22T16:57:54.420Z,102485.84
2023-01-22T17:00:23.372Z,102485.13
2023-01-22T17:02:51.999Z,102483.31
2023-01-22T17:05:20.899Z,102486.19
2023-01-22T17:07:49.656Z,102480.19
2023-01-22T17:10:18.830Z,102470.72
2023-01-22T17:12:49.409Z,102475.09
2023-01-22T17:15:18.635Z,102479.47
2023-01-22T17:17:47.119Z,102477.81
2023-01-22T17:20:16.970Z,102484.88
2023-01-22T17:22:48.617Z,102488.50
2023-01-22T17:25:17.554Z,102491.31
2023-01-22T17:27:46.144Z,102497.56
2023-01-22T17:30:18.321Z,102500.81
2023-01-22T17:32:47.850Z,102502.72
2023-01-22T17:35:17.533Z,102500.28
2023-01-22T17:37:47.600Z,102496.81
2023-01-22T17:40:17.488Z,102483.94
2023-01-22T17:42:46.258Z,102484.94
2023-01-22T17:45:16.499Z,102476.22
2023-01-22T17:47:45.840Z,102478.78
2023-01-22T17:50:14.561Z,102472.59
2023-01-22T17:52:44.257Z,102463.75
2023-01-22T17:55:15.720Z,102461.31
2023-01-22T17:57:45.173Z,102471.66
2023-01-22T18:00:19.267Z,102474.88
2023-01-22T18:02:50.336Z,102465.72
2023-01-22T18:05:19.327Z,102457.34
2023-01-22T18:07:47.910Z,102441.91
2023-01-22T18:10:16.699Z,102473.81
2023-01-22T18:12:45.884Z,102495.22
2023-01-22T18:15:14.592Z,102500.75
2023-01-22T18:17:44.789Z,102496.34
2023-01-22T18:20:13.699Z,102491.16
2023-01-22T18:22:42.319Z,102501.72
2023-01-22T18:25:11.388Z,102518.53
2023-01-22T18:27:39.826Z,102522.16
2023-01-22T18:30:10.207Z,102520.50
2023-01-22T18:32:38.837Z,102531.91
2023-01-22T18:35:11.073Z,102526.63
2023-01-22T18:37:40.855Z,102533.50
2023-01-22T18:40:11.033Z,102523.94
2023-01-22T18:42:39.662Z,102524.97
2023-01-22T18:45:10.075Z,102534.66
2023-01-22T18:47:38.740Z,102534.66
2023-01-22T18:50:12.450Z,102536.31
2023-01-22T18:52:42.195Z,102550.47
2023-01-22T18:55:11.594Z,102553.03
2023-01-22T18:57:43.316Z,102553.03
2023-01-22T19:00:14.178Z,102560.09
2023-01-22T19:02:43.512Z,102563.56
2023-01-22T19:05:13.752Z,102563.63
2023-01-22T19:07:42.520Z,102559.28
2023-01-22T19:10:13.173Z,102566.38
2023-01-22T19:12:41.816Z,102573.31
2023-01-22T19:15:11.887Z,102576.03
2023-01-22T19:17:40.810Z,102573.44
2023-01-22T19:20:13.339Z,102576.16
2023-01-22T19:22:44.044Z,102577.84
2023-01-22T19:25:12.915Z,102577.06
2023-01-22T19:27:41.734Z,102580.59
2023-01-22T19:30:11.970Z,102569.44
2023-01-22T19:32:40.693Z,102560.69
2023-01-22T19:35:11.016Z,102565.16
2023-01-22T19:37:40.207Z,102564.47
2023-01-22T19:40:11.620Z,102564.47
2023-01-22T19:42:42.092Z,102573.28
2023-01-22T19:45:11.297Z,102565.63
2023-01-22T19:47:39.982Z,102576.22
2023-01-22T19:50:09.927Z,102579.72
2023-01-22T19:52:38.837Z,102584.19
2023-01-22T19:55:08.326Z,102587.84
2023-01-22T19:57:38.718Z,102592.25
2023-01-22T20:00:09.396Z,102597.63
2023-01-22T20:02:38.300Z,102605.78
2023-01-22T20:05:08.202Z,102607.44
2023-01-22T20:07:36.954Z,102606.53
2023-01-22T20:10:07.199Z,102612.66
2023-01-22T20:12:35.803Z,102620.38
2023-01-22T20:15:07.314Z,102615.03
2023-01-22T20:17:36.871Z,102617.75
2023-01-22T20:20:07.906Z,102623.78
2023-01-22T20:22:36.668Z,102625.56
2023-01-22T20:25:09.949Z,102629.78
2023-01-22T20:27:38.741Z,102623.59
2023-01-22T20:30:11.956Z,102623.63
2023-01-22T20:32:43.749Z,102618.50
2023-01-22T20:35:15.762Z,102620.19
2023-01-22T20:37:44.395Z,102627.19
2023-01-22T20:40:15.023Z,102614.88
2023-01-22T20:42:43.990Z,102616.66
2023-01-22T20:45:14.228Z,102617.50
2023-01-22T20:47:43.258Z,102626.31
2023-01-22T20:50:13.388Z,102626.22
2023-01-22T20:52:42.119Z,102624.50
2023-01-22T20:55:13.826Z,102628.09
2023-01-22T20:57:42.847Z,102622.91
2023-01-22T21:00:15.385Z,102630.97
2023-01-22T21:02:44.227Z,102632.78
2023-01-22T21:05:13.010Z,102627.50
2023-01-22T21:07:41.598Z,102634.47
2023-01-22T21:10:13.683Z,102637.94
2023-01-22T21:12:42.884Z,102646.72
2023-01-22T21:15:12.437Z,102643.16
2023-01-22T21:17:42.747Z,102643.97
2023-01-22T21:20:14.753Z,102647.41
2023-01-22T21:22:43.725Z,102649.09
2023-01-22T21:25:12.514Z,102647.28
2023-01-22T21:27:41.175Z,102646.28
2023-01-22T21:30:11.114Z,102648.94
2023-01-22T21:32:40.783Z,102650.72
2023-01-22T21:35:11.854Z,102649.75
2023-01-22T21:37:40.585Z,102654.16
2023-01-22T21:40:13.491Z,102647.16
2023-01-22T21:43:00.151Z,102639.41
2023-01-22T21:45:45.883Z,102640.06
2023-01-22T21:48:14.719Z,102638.19
2023-01-22T21:50:45.498Z,102639.97
2023-01-22T21:53:14.287Z,102637.34
2023-01-22T21:55:51.698Z,102635.56
2023-01-22T21:58:20.431Z,102642.53
2023-01-22T22:00:49.388Z,102639.91
2023-01-22T22:03:19.976Z,102653.09
2023-01-22T22:06:02.020Z,102650.44
2023-01-22T22:08:31.567Z,102651.38
2023-01-22T22:11:00.345Z,102652.22
2023-01-22T22:13:29.065Z,102650.44
2023-01-22T22:16:00.778Z,102653.94
2023-01-22T22:18:29.786Z,102669.75
2023-01-22T22:21:05.373Z,102667.97
2023-01-22T22:23:35.570Z,102664.53
2023-01-22T22:26:05.713Z,102670.66
2023-01-22T22:28:38.557Z,102668.81
2023-01-22T22:31:12.087Z,102668.78
2023-01-22T22:33:41.115Z,102667.03
2023-01-22T22:36:13.425Z,102667.91
2023-01-22T22:38:42.186Z,102681.03
2023-01-22T22:41:14.091Z,102679.25
2023-01-22T22:43:44.934Z,102682.75
2023-01-22T22:46:17.695Z,102683.59
2023-01-22T22:48:47.996Z,102681.88
2023-01-22T22:51:20.848Z,102692.44
2023-01-22T22:53:53.032Z,102694.13
2023-01-22T22:56:23.441Z,102697.63
2023-01-22T22:58:52.625Z,102690.66
2023-01-22T23:01:23.737Z,102693.22
2023-01-22T23:03:53.744Z,102697.63
2023-01-22T23:06:26.404Z,102696.69
2023-01-22T23:08:57.566Z,102689.56
2023-01-22T23:11:29.126Z,102689.53
2023-01-22T23:14:01.625Z,102679.94
2023-01-22T23:16:33.070Z,102673.75
2023-01-22T23:19:04.264Z,102679.00
2023-01-22T23:21:36.913Z,102687.75
2023-01-22T23:24:07.338Z,102680.72
2023-01-22T23:26:36.235Z,102678.97
2023-01-22T23:29:06.659Z,102664.03
2023-01-22T23:31:38.475Z,102648.31
2023-01-22T23:34:09.595Z,102652.81
2023-01-22T23:36:41.221Z,102641.34
2023-01-22T23:39:10.075Z,102661.66
2023-01-22T23:41:38.801Z,102668.66
2023-01-22T23:44:07.381Z,102666.88
2023-01-22T23:46:36.871Z,102670.44
2023-01-22T23:49:05.993Z,102671.34
2023-01-22T23:51:34.886Z,102673.00
2023-01-22T23:54:06.254Z,102670.34
2023-01-22T23:56:35.453Z,102666.09
2023-01-22T23:59:04.047Z,102663.38
